sensor_id;sensor_type;location;lat;lon;timestamp;P1;durP1;ratioP1;P2;durP2;ratioP2
27863;SDS011;15980;51.092;13.916;2023-01-25T00:05:44;42.17;;;14.07;;
27863;SDS011;15980;51.092;13.916;2023-01-25T00:15:44;34.55;;;13.02;;
27863;SDS011;15980;51.092;13.916;2023-01-25T00:25:44;42.72;;;13.52;;
27863;SDS011;15980;51.092;13.916;2023-01-25T00:35:45;39.00;;;12.95;;
27863;SDS011;15980;51.092;13.916;2023-01-25T00:55:51;36.72;;;13.77;;
27863;SDS011;15980;51.092;13.916;2023-01-25T01:06:02;48.22;;;13.65;;
27863;SDS011;15980;51.092;13.916;2023-01-25T01:26:43;45.90;;;16.25;;
27863;SDS011;15980;51.092;13.916;2023-01-25T01:36:43;45.17;;;15.43;;
27863;SDS011;15980;51.092;13.916;2023-01-25T01:46:50;38.95;;;13.98;;
27863;SDS011;15980;51.092;13.916;2023-01-25T01:57:01;42.90;;;14.82;;
27863;SDS011;15980;51.092;13.916;2023-01-25T02:07:07;41.92;;;15.43;;
27863;SDS011;15980;51.092;13.916;2023-01-25T02:17:30;45.00;;;15.38;;
27863;SDS011;15980;51.092;13.916;2023-01-25T02:27:34;34.03;;;13.02;;
27863;SDS011;15980;51.092;13.916;2023-01-25T02:37:39;41.97;;;14.38;;
27863;SDS011;15980;51.092;13.916;2023-01-25T02:47:39;31.90;;;12.43;;
27863;SDS011;15980;51.092;13.916;2023-01-25T02:57:39;30.35;;;10.65;;
27863;SDS011;15980;51.092;13.916;2023-01-25T03:07:39;41.53;;;14.10;;
27863;SDS011;15980;51.092;13.916;2023-01-25T03:17:40;39.00;;;13.98;;
27863;SDS011;15980;51.092;13.916;2023-01-25T03:27:40;45.97;;;16.00;;
27863;SDS011;15980;51.092;13.916;2023-01-25T03:37:40;40.83;;;14.50;;
27863;SDS011;15980;51.092;13.916;2023-01-25T03:47:41;43.05;;;14.55;;
27863;SDS011;15980;51.092;13.916;2023-01-25T03:57:41;41.83;;;16.95;;
27863;SDS011;15980;51.092;13.916;2023-01-25T04:07:41;44.67;;;16.55;;
27863;SDS011;15980;51.092;13.916;2023-01-25T04:17:41;37.83;;;12.63;;
27863;SDS011;15980;51.092;13.916;2023-01-25T04:27:42;40.42;;;15.52;;
27863;SDS011;15980;51.092;13.916;2023-01-25T04:37:42;47.75;;;15.27;;
27863;SDS011;15980;51.092;13.916;2023-01-25T04:47:42;50.92;;;16.50;;
27863;SDS011;15980;51.092;13.916;2023-01-25T04:57:43;57.05;;;17.00;;
27863;SDS011;15980;51.092;13.916;2023-01-25T05:07:43;54.78;;;16.92;;
27863;SDS011;15980;51.092;13.916;2023-01-25T05:17:43;48.33;;;16.88;;
27863;SDS011;15980;51.092;13.916;2023-01-25T05:27:44;50.13;;;16.48;;
27863;SDS011;15980;51.092;13.916;2023-01-25T05:37:44;45.83;;;16.15;;
27863;SDS011;15980;51.092;13.916;2023-01-25T05:47:44;54.97;;;15.85;;
27863;SDS011;15980;51.092;13.916;2023-01-25T05:57:44;37.88;;;13.18;;
27863;SDS011;15980;51.092;13.916;2023-01-25T06:07:45;37.28;;;12.90;;
27863;SDS011;15980;51.092;13.916;2023-01-25T06:17:45;41.72;;;12.55;;
27863;SDS011;15980;51.092;13.916;2023-01-25T06:27:45;45.72;;;13.30;;
27863;SDS011;15980;51.092;13.916;2023-01-25T06:37:46;35.58;;;11.23;;
27863;SDS011;15980;51.092;13.916;2023-01-25T06:47:47;40.97;;;16.60;;
27863;SDS011;15980;51.092;13.916;2023-01-25T06:57:48;26.07;;;8.50;;
27863;SDS011;15980;51.092;13.916;2023-01-25T07:07:48;36.58;;;12.57;;
27863;SDS011;15980;51.092;13.916;2023-01-25T07:17:49;43.50;;;11.80;;
27863;SDS011;15980;51.092;13.916;2023-01-25T07:27:49;42.45;;;12.95;;
27863;SDS011;15980;51.092;13.916;2023-01-25T07:37:49;40.20;;;13.73;;
27863;SDS011;15980;51.092;13.916;2023-01-25T07:47:49;36.92;;;13.48;;
27863;SDS011;15980;51.092;13.916;2023-01-25T07:57:52;29.88;;;10.52;;
27863;SDS011;15980;51.092;13.916;2023-01-25T08:07:53;40.50;;;12.65;;
27863;SDS011;15980;51.092;13.916;2023-01-25T08:17:53;26.80;;;9.60;;
27863;SDS011;15980;51.092;13.916;2023-01-25T08:27:53;28.77;;;10.27;;
27863;SDS011;15980;51.092;13.916;2023-01-25T08:37:54;29.52;;;11.05;;
27863;SDS011;15980;51.092;13.916;2023-01-25T08:47:54;30.65;;;10.63;;
27863;SDS011;15980;51.092;13.916;2023-01-25T08:57:54;26.55;;;9.50;;
27863;SDS011;15980;51.092;13.916;2023-01-25T09:07:55;30.52;;;11.50;;
27863;SDS011;15980;51.092;13.916;2023-01-25T09:17:55;25.55;;;10.43;;
27863;SDS011;15980;51.092;13.916;2023-01-25T09:27:56;31.50;;;11.15;;
27863;SDS011;15980;51.092;13.916;2023-01-25T09:37:56;27.50;;;11.07;;
27863;SDS011;15980;51.092;13.916;2023-01-25T09:48:08;36.63;;;13.13;;
27863;SDS011;15980;51.092;13.916;2023-01-25T10:18:55;31.65;;;12.15;;
27863;SDS011;15980;51.092;13.916;2023-01-25T10:29:20;27.00;;;10.77;;
27863;SDS011;15980;51.092;13.916;2023-01-25T10:39:21;37.70;;;12.65;;
27863;SDS011;15980;51.092;13.916;2023-01-25T10:59:28;25.10;;;9.88;;
27863;SDS011;15980;51.092;13.916;2023-01-25T11:09:30;27.10;;;10.60;;
27863;SDS011;15980;51.092;13.916;2023-01-25T11:19:37;32.08;;;12.25;;
27863;SDS011;15980;51.092;13.916;2023-01-25T11:29:39;35.63;;;13.60;;
27863;SDS011;15980;51.092;13.916;2023-01-25T12:10:56;33.88;;;12.48;;
27863;SDS011;15980;51.092;13.916;2023-01-25T12:41:50;35.65;;;13.75;;
27863;SDS011;15980;51.092;13.916;2023-01-25T12:52:23;32.60;;;12.57;;
27863;SDS011;15980;51.092;13.916;2023-01-25T13:12:55;44.42;;;15.02;;
27863;SDS011;15980;51.092;13.916;2023-01-25T13:23:03;37.10;;;13.07;;
27863;SDS011;15980;51.092;13.916;2023-01-25T13:33:04;89.70;;;32.78;;
27863;SDS011;15980;51.092;13.916;2023-01-25T14:03:15;53.45;;;16.75;;
27863;SDS011;15980;51.092;13.916;2023-01-25T14:13:16;48.90;;;17.88;;
27863;SDS011;15980;51.092;13.916;2023-01-25T14:23:24;49.05;;;16.63;;
27863;SDS011;15980;51.092;13.916;2023-01-25T14:33:29;44.67;;;15.57;;
27863;SDS011;15980;51.092;13.916;2023-01-25T14:43:31;49.92;;;15.50;;
27863;SDS011;15980;51.092;13.916;2023-01-25T14:53:37;55.55;;;16.63;;
27863;SDS011;15980;51.092;13.916;2023-01-25T15:03:41;60.88;;;16.27;;
27863;SDS011;15980;51.092;13.916;2023-01-25T15:13:42;60.83;;;17.08;;
27863;SDS011;15980;51.092;13.916;2023-01-25T15:23:44;57.92;;;19.88;;
27863;SDS011;15980;51.092;13.916;2023-01-25T15:43:46;60.58;;;18.80;;
27863;SDS011;15980;51.092;13.916;2023-01-25T15:53:47;49.13;;;16.67;;
27863;SDS011;15980;51.092;13.916;2023-01-25T16:03:48;66.07;;;21.08;;
27863;SDS011;15980;51.092;13.916;2023-01-25T16:13:48;46.63;;;15.30;;
27863;SDS011;15980;51.092;13.916;2023-01-25T16:23:48;57.47;;;19.35;;
27863;SDS011;15980;51.092;13.916;2023-01-25T16:33:49;50.38;;;16.80;;
27863;SDS011;15980;51.092;13.916;2023-01-25T16:43:49;68.13;;;19.90;;
27863;SDS011;15980;51.092;13.916;2023-01-25T16:53:51;50.45;;;18.25;;
27863;SDS011;15980;51.092;13.916;2023-01-25T17:03:53;59.35;;;21.08;;
27863;SDS011;15980;51.092;13.916;2023-01-25T17:13:55;75.03;;;25.17;;
27863;SDS011;15980;51.092;13.916;2023-01-25T17:23:57;87.95;;;27.95;;
27863;SDS011;15980;51.092;13.916;2023-01-25T17:34:03;60.47;;;20.48;;
27863;SDS011;15980;51.092;13.916;2023-01-25T17:44:05;59.13;;;20.05;;
27863;SDS011;15980;51.092;13.916;2023-01-25T17:54:05;68.95;;;20.88;;
27863;SDS011;15980;51.092;13.916;2023-01-25T18:04:06;74.82;;;26.63;;
27863;SDS011;15980;51.092;13.916;2023-01-25T18:14:08;86.05;;;29.27;;
27863;SDS011;15980;51.092;13.916;2023-01-25T18:34:13;72.97;;;25.23;;
27863;SDS011;15980;51.092;13.916;2023-01-25T18:44:13;56.45;;;18.95;;
27863;SDS011;15980;51.092;13.916;2023-01-25T18:54:14;44.92;;;16.30;;
27863;SDS011;15980;51.092;13.916;2023-01-25T19:04:14;42.83;;;15.50;;
27863;SDS011;15980;51.092;13.916;2023-01-25T19:14:14;47.72;;;15.73;;
27863;SDS011;15980;51.092;13.916;2023-01-25T19:24:15;49.22;;;17.83;;
27863;SDS011;15980;51.092;13.916;2023-01-25T19:34:16;43.08;;;16.30;;
27863;SDS011;15980;51.092;13.916;2023-01-25T19:44:16;52.28;;;18.73;;
27863;SDS011;15980;51.092;13.916;2023-01-25T19:54:16;46.90;;;16.40;;
27863;SDS011;15980;51.092;13.916;2023-01-25T20:04:20;58.67;;;20.45;;
27863;SDS011;15980;51.092;13.916;2023-01-25T20:14:22;51.78;;;18.42;;
27863;SDS011;15980;51.092;13.916;2023-01-25T20:24:22;48.60;;;15.48;;
27863;SDS011;15980;51.092;13.916;2023-01-25T20:34:23;47.83;;;16.73;;
27863;SDS011;15980;51.092;13.916;2023-01-25T20:44:23;41.33;;;14.38;;
27863;SDS011;15980;51.092;13.916;2023-01-25T20:54:23;46.50;;;17.00;;
27863;SDS011;15980;51.092;13.916;2023-01-25T21:04:23;61.13;;;21.25;;
27863;SDS011;15980;51.092;13.916;2023-01-25T21:14:25;48.03;;;16.93;;
27863;SDS011;15980;51.092;13.916;2023-01-25T21:24:25;62.92;;;20.05;;
27863;SDS011;15980;51.092;13.916;2023-01-25T21:34:25;60.90;;;20.55;;
27863;SDS011;15980;51.092;13.916;2023-01-25T21:44:26;67.68;;;21.67;;
27863;SDS011;15980;51.092;13.916;2023-01-25T21:54:30;65.97;;;22.60;;
27863;SDS011;15980;51.092;13.916;2023-01-25T22:04:31;70.60;;;24.02;;
27863;SDS011;15980;51.092;13.916;2023-01-25T22:14:32;67.45;;;22.48;;
27863;SDS011;15980;51.092;13.916;2023-01-25T22:24:32;58.80;;;20.55;;
27863;SDS011;15980;51.092;13.916;2023-01-25T22:34:32;72.40;;;22.55;;
27863;SDS011;15980;51.092;13.916;2023-01-25T22:44:33;73.65;;;25.30;;
27863;SDS011;15980;51.092;13.916;2023-01-25T22:54:33;74.88;;;23.02;;
27863;SDS011;15980;51.092;13.916;2023-01-25T23:04:33;66.07;;;21.25;;
27863;SDS011;15980;51.092;13.916;2023-01-25T23:14:33;54.95;;;19.48;;
27863;SDS011;15980;51.092;13.916;2023-01-25T23:24:34;56.53;;;20.40;;
27863;SDS011;15980;51.092;13.916;2023-01-25T23:34:34;48.83;;;17.83;;
27863;SDS011;15980;51.092;13.916;2023-01-25T23:44:34;55.17;;;19.02;;
27863;SDS011;15980;51.092;13.916;2023-01-25T23:54:35;53.00;;;18.35;;
